Time;durP1;ratioP1;P1;durP2;ratioP2;P2;SDS_P1;SDS_P2;PMS_P1;PMS_P2;Temp;Humidity;BMP_temperature;BMP_pressure;BME280_temperature;BME280_humidity;BME280_pressure;Samples;Min_cycle;Max_cycle;Signal;HPM_P1;HPM_P2
2021/04/21 00:00:27;;;;;;;0.80;0.63;;;20.60;47.90;;;;;;6371424;27;20027;-64
2021/04/21 00:03:30;;;;;;;1.25;0.98;;;20.60;47.90;;;;;;6371678;27;20023;-64
2021/04/21 00:06:32;;;;;;;1.13;0.90;;;20.60;47.90;;;;;;6370794;27;20022;-64
2021/04/21 00:09:33;;;;;;;1.67;0.93;;;20.50;47.80;;;;;;6370705;27;20031;-64
2021/04/21 00:12:34;;;;;;;1.10;0.80;;;20.60;47.90;;;;;;6368114;27;20043;-64
2021/04/21 00:15:35;;;;;;;1.30;0.95;;;20.60;47.90;;;;;;6370417;27;20518;-64
2021/04/21 00:18:39;;;;;;;0.73;0.70;;;20.60;47.90;;;;;;6370742;27;20049;-65
2021/04/21 00:21:40;;;;;;;1.25;0.80;;;20.60;47.80;;;;;;6370212;27;20107;-64
2021/04/21 00:24:42;;;;;;;1.02;0.80;;;20.60;47.80;;;;;;6354503;27;20027;-64
2021/04/21 00:27:44;;;;;;;1.17;0.95;;;20.60;47.80;;;;;;6360320;27;20525;-64
2021/04/21 00:30:46;;;;;;;1.25;0.88;;;20.60;47.80;;;;;;6370580;27;20038;-64
2021/04/21 00:33:53;;;;;;;1.00;0.80;;;20.60;47.80;;;;;;6370118;27;20023;-64
2021/04/21 00:36:57;;;;;;;0.98;0.80;;;20.60;47.80;;;;;;6369768;27;20080;-65
2021/04/21 00:39:59;;;;;;;1.52;1.13;;;20.60;47.80;;;;;;6370071;27;20392;-64
2021/04/21 00:43:09;;;;;;;1.65;1.05;;;20.60;47.80;;;;;;6369617;27;20204;-64
2021/04/21 00:46:31;;;;;;;0.95;0.82;;;20.60;47.90;;;;;;6370095;27;20015;-64
2021/04/21 00:49:52;;;;;;;0.90;0.70;;;20.60;47.80;;;;;;6370008;27;20118;-65
2021/04/21 00:53:31;;;;;;;2.28;1.17;;;20.60;47.90;;;;;;6369637;27;20063;-64
2021/04/21 00:56:44;;;;;;;1.38;1.10;;;20.60;47.90;;;;;;6369120;27;20027;-64
2021/04/21 01:00:06;;;;;;;1.33;1.00;;;20.60;47.80;;;;;;6370118;27;20031;-64
2021/04/21 01:03:22;;;;;;;0.70;0.70;;;20.60;47.80;;;;;;6369969;27;20107;-64
2021/04/21 01:06:33;;;;;;;1.48;0.95;;;20.60;47.80;;;;;;6370536;27;20027;-64
2021/04/21 01:09:35;;;;;;;1.80;0.90;;;20.60;47.80;;;;;;6370076;27;20044;-64
2021/04/21 01:12:37;;;;;;;1.15;0.80;;;20.50;47.80;;;;;;6354115;27;20027;-64
2021/04/21 01:15:41;;;;;;;1.05;0.95;;;20.60;47.80;;;;;;6370123;27;20035;-64
2021/04/21 01:18:44;;;;;;;1.00;0.80;;;20.60;47.90;;;;;;6369672;27;20023;-64
2021/04/21 01:21:48;;;;;;;1.77;0.88;;;20.60;47.90;;;;;;6370216;28;20019;-64
2021/04/21 01:24:55;;;;;;;1.10;1.00;;;20.60;47.80;;;;;;6352683;27;20027;-64
2021/04/21 01:28:00;;;;;;;1.05;0.65;;;20.60;47.90;;;;;;6349331;28;20389;-64
2021/04/21 01:31:02;;;;;;;1.23;0.93;;;20.50;47.70;;;;;;6369957;27;20031;-64
2021/04/21 01:34:04;;;;;;;1.10;0.90;;;20.60;47.90;;;;;;6369812;27;20028;-65
2021/04/21 01:37:07;;;;;;;1.30;0.90;;;20.60;47.80;;;;;;6369661;27;20385;-64
2021/04/21 01:40:12;;;;;;;1.00;0.90;;;20.60;47.80;;;;;;6373552;27;20012;-64
2021/04/21 01:43:19;;;;;;;1.40;0.98;;;20.60;47.90;;;;;;6374792;27;20027;-64
2021/04/21 01:46:21;;;;;;;1.52;0.80;;;20.60;47.80;;;;;;6374879;27;20487;-64
2021/04/21 01:49:42;;;;;;;1.73;1.10;;;20.60;47.90;;;;;;6374357;27;20045;-65
2021/04/21 01:52:59;;;;;;;1.30;0.88;;;20.60;47.80;;;;;;6374625;27;20043;-64
2021/04/21 01:56:06;;;;;;;1.70;1.20;;;20.60;47.80;;;;;;6374453;27;20083;-65
2021/04/21 01:59:12;;;;;;;1.17;0.90;;;20.60;47.90;;;;;;6374383;27;20080;-64
2021/04/21 02:02:26;;;;;;;1.40;0.90;;;20.60;48.00;;;;;;6374690;27;20374;-64
2021/04/21 02:05:42;;;;;;;1.00;0.90;;;20.60;47.80;;;;;;6374236;27;20076;-64
2021/04/21 02:09:01;;;;;;;1.48;1.00;;;20.60;47.80;;;;;;6374191;27;20124;-64
2021/04/21 02:12:37;;;;;;;1.25;0.60;;;20.60;47.80;;;;;;6357300;27;20108;-64
2021/04/21 02:15:52;;;;;;;1.13;0.75;;;20.60;47.80;;;;;;6363903;27;20114;-64
2021/04/21 02:18:52;;;;;;;2.00;1.10;;;20.60;47.80;;;;;;6373870;27;20027;-64
2021/04/21 02:22:20;;;;;;;1.33;0.95;;;20.50;47.80;;;;;;6373888;27;20026;-64
2021/04/21 02:25:35;;;;;;;1.30;0.65;;;20.60;47.80;;;;;;6363025;27;20031;-64
2021/04/21 02:29:09;;;;;;;1.25;0.82;;;20.50;47.70;;;;;;6373818;27;20483;-64
2021/04/21 02:32:23;;;;;;;1.45;0.95;;;20.60;47.80;;;;;;6373050;27;20035;-64
2021/04/21 02:35:37;;;;;;;0.80;0.80;;;20.60;47.90;;;;;;6373575;27;20023;-64
2021/04/21 02:38:43;;;;;;;0.95;0.73;;;20.50;47.70;;;;;;6372486;27;20350;-64
2021/04/21 02:41:55;;;;;;;2.45;0.90;;;20.60;47.80;;;;;;6373706;27;20099;-64
2021/04/21 02:45:46;;;;;;;1.38;0.93;;;20.60;47.80;;;;;;6373362;27;20031;-64
2021/04/21 02:49:12;;;;;;;1.80;0.90;;;20.60;47.90;;;;;;6324868;27;20048;-64
2021/04/21 02:52:19;;;;;;;;;;;20.50;47.70;;;;;;6372711;27;20422;-64
2021/04/21 02:55:26;;;;;;;1.52;0.93;;;20.60;47.80;;;;;;6373186;27;20349;-64
2021/04/21 02:58:35;;;;;;;1.33;0.90;;;20.60;47.80;;;;;;6373421;27;20515;-64
2021/04/21 03:01:51;;;;;;;0.95;0.70;;;20.60;47.80;;;;;;6373009;27;20427;-64
2021/04/21 03:05:08;;;;;;;0.80;0.70;;;20.60;47.90;;;;;;6373295;27;20027;-64
2021/04/21 03:08:27;;;;;;;1.05;0.85;;;20.60;47.90;;;;;;6371347;27;20026;-64
2021/04/21 03:11:30;;;;;;;1.08;0.70;;;20.60;47.90;;;;;;6371260;27;20039;-64
2021/04/21 03:14:34;;;;;;;1.00;0.80;;;20.50;47.80;;;;;;6372871;27;20509;-64
2021/04/21 03:17:35;;;;;;;1.50;0.85;;;20.50;47.70;;;;;;6372579;27;20015;-65
2021/04/21 03:20:39;;;;;;;1.73;0.90;;;20.50;47.70;;;;;;6372419;27;20068;-64
2021/04/21 03:23:42;;;;;;;1.30;0.80;;;20.60;47.80;;;;;;6365227;27;20027;-64
2021/04/21 03:26:49;;;;;;;1.30;0.88;;;20.60;47.80;;;;;;6355218;27;20051;-64
2021/04/21 03:29:51;;;;;;;1.40;1.00;;;20.50;47.80;;;;;;6372306;27;20105;-64
2021/04/21 03:33:14;;;;;;;0.88;0.75;;;20.60;47.80;;;;;;6372185;27;20415;-64
2021/04/21 03:36:17;;;;;;;1.10;0.85;;;20.50;47.80;;;;;;6365014;27;20393;-64
2021/04/21 03:39:18;;;;;;;1.25;0.80;;;20.50;47.80;;;;;;6372241;27;20020;-64
2021/04/21 03:42:19;;;;;;;0.73;0.70;;;20.60;47.90;;;;;;6371523;27;20481;-65
2021/04/21 03:45:19;;;;;;;1.20;1.05;;;20.60;47.90;;;;;;6372061;27;20481;-64
2021/04/21 03:48:21;;;;;;;1.02;0.80;;;20.60;47.80;;;;;;6371653;27;20062;-64
2021/04/21 03:51:22;;;;;;;1.40;0.90;;;20.50;47.70;;;;;;6371561;27;20032;-64
2021/04/21 03:54:24;;;;;;;1.17;0.90;;;20.50;47.70;;;;;;6371873;27;20027;-64
2021/04/21 03:57:27;;;;;;;1.95;0.85;;;20.50;47.80;;;;;;6371650;27;20477;-64
2021/04/21 04:00:41;;;;;;;0.90;0.80;;;20.60;47.80;;;;;;6371402;27;20031;-64
2021/04/21 04:03:47;;;;;;;1.30;0.90;;;20.50;47.80;;;;;;6371575;27;20031;-64
2021/04/21 04:06:49;;;;;;;1.25;0.90;;;20.60;47.80;;;;;;6371476;27;20046;-65
2021/04/21 04:09:50;;;;;;;1.30;1.10;;;20.50;47.80;;;;;;6371372;27;20019;-64
2021/04/21 04:12:53;;;;;;;1.10;0.93;;;20.50;47.70;;;;;;6353452;27;20037;-64
2021/04/21 04:15:57;;;;;;;1.63;1.10;;;20.50;47.70;;;;;;6370773;27;20100;-64
2021/04/21 04:19:00;;;;;;;0.90;0.77;;;20.60;47.90;;;;;;6369550;27;20058;-64
2021/04/21 04:22:06;;;;;;;1.60;0.95;;;20.50;47.80;;;;;;6355730;27;20020;-64
2021/04/21 04:25:09;;;;;;;1.38;0.95;;;20.50;47.70;;;;;;6349069;27;20236;-65
2021/04/21 04:28:10;;;;;;;1.30;0.90;;;20.50;47.70;;;;;;6350698;27;20761;-64
2021/04/21 04:31:14;;;;;;;1.23;0.90;;;20.50;47.70;;;;;;6370806;27;20392;-64
2021/04/21 04:34:17;;;;;;;1.30;1.13;;;20.60;47.80;;;;;;6370749;27;20023;-64
2021/04/21 04:37:21;;;;;;;1.27;1.00;;;20.60;47.80;;;;;;6370552;27;20027;-64
2021/04/21 04:40:22;;;;;;;1.17;1.00;;;20.50;47.80;;;;;;6370510;27;20022;-64
2021/04/21 04:43:23;;;;;;;1.40;0.90;;;20.50;47.70;;;;;;6370635;27;20061;-64
2021/04/21 04:46:27;;;;;;;0.90;0.82;;;20.60;47.90;;;;;;6371164;27;20031;-64
2021/04/21 04:49:31;;;;;;;1.70;1.00;;;20.60;47.90;;;;;;6370313;27;20039;-64
2021/04/21 04:52:34;;;;;;;1.80;1.00;;;20.50;47.70;;;;;;6370338;27;20039;-64
2021/04/21 04:55:35;;;;;;;1.45;1.10;;;20.50;47.70;;;;;;6342777;27;20508;-64
2021/04/21 04:58:40;;;;;;;1.25;0.90;;;20.50;47.70;;;;;;6344215;28;20019;-64
2021/04/21 05:01:49;;;;;;;1.63;1.30;;;20.60;47.80;;;;;;6356598;27;20015;-64
2021/04/21 05:04:58;;;;;;;1.58;1.00;;;20.60;47.80;;;;;;6354610;27;20586;-64
2021/04/21 05:08:07;;;;;;;1.10;0.98;;;20.60;47.80;;;;;;6346645;27;20023;-65
2021/04/21 05:11:11;;;;;;;1.63;1.23;;;20.60;47.80;;;;;;6345268;28;20493;-64
2021/04/21 05:14:16;;;;;;;1.30;0.95;;;20.50;47.70;;;;;;6356976;27;20020;-64
2021/04/21 05:17:32;;;;;;;1.45;1.27;;;20.50;47.70;;;;;;6355907;28;20035;-64
2021/04/21 05:21:04;;;;;;;1.50;1.10;;;20.60;47.80;;;;;;6357556;28;20023;-65
2021/04/21 05:24:16;;;;;;;1.80;1.10;;;20.60;47.80;;;;;;6319745;28;20055;-64
2021/04/21 05:27:44;;;;;;;2.20;1.60;;;20.60;47.80;;;;;;6358591;27;20069;-65
2021/04/21 05:31:28;;;;;;;1.63;1.20;;;20.60;47.80;;;;;;6345137;28;20027;-64
2021/04/21 05:35:06;;;;;;;1.52;1.27;;;20.60;48.00;;;;;;6330718;28;20065;-64
2021/04/21 05:38:40;;;;;;;1.33;1.17;;;20.60;47.80;;;;;;6344112;27;20474;-63
2021/04/21 05:42:18;;;;;;;1.70;1.45;;;20.60;47.80;;;;;;6340815;28;20038;-64
2021/04/21 05:45:51;;;;;;;1.75;1.30;;;20.60;47.80;;;;;;6353128;28;20122;-64
2021/04/21 05:49:37;;;;;;;1.70;1.33;;;20.60;47.80;;;;;;6348787;28;20510;-64
2021/04/21 05:52:56;;;;;;;1.40;1.20;;;20.60;47.80;;;;;;6330028;28;20028;-64
2021/04/21 05:56:05;;;;;;;2.17;1.35;;;20.60;47.80;;;;;;6349838;28;20028;-64
2021/04/21 05:59:41;;;;;;;1.75;1.20;;;20.60;47.80;;;;;;6357322;28;20031;-64
2021/04/21 06:02:45;;;;;;;2.00;1.07;;;20.60;47.80;;;;;;6344781;28;20028;-64
2021/04/21 06:05:46;;;;;;;1.60;1.17;;;20.60;47.80;;;;;;6340656;28;20016;-65
2021/04/21 06:08:47;;;;;;;2.00;1.30;;;20.60;47.80;;;;;;6341428;27;20578;-64
2021/04/21 06:11:47;;;;;;;1.90;1.40;;;20.60;47.80;;;;;;6337309;28;20035;-64
2021/04/21 06:14:51;;;;;;;2.20;1.38;;;20.60;47.80;;;;;;6330940;28;20098;-64
2021/04/21 06:17:54;;;;;;;2.03;1.20;;;20.60;47.80;;;;;;6354298;28;20054;-64
2021/04/21 06:20:55;;;;;;;1.63;1.23;;;20.60;47.80;;;;;;6345643;28;20051;-64
2021/04/21 06:23:57;;;;;;;1.80;1.38;;;20.60;47.80;;;;;;6358414;27;20024;-64
2021/04/21 06:27:08;;;;;;;2.72;1.50;;;20.60;47.80;;;;;;6356089;27;20577;-64
2021/04/21 06:30:09;;;;;;;1.60;1.20;;;20.60;47.80;;;;;;6353538;27;20043;-65
2021/04/21 06:33:11;;;;;;;1.50;1.27;;;20.60;47.80;;;;;;6366643;27;20023;-64
2021/04/21 06:36:14;;;;;;;3.78;1.42;;;20.60;47.80;;;;;;6351395;27;20378;-64
2021/04/21 06:39:18;;;;;;;2.35;1.33;;;20.60;47.80;;;;;;6363336;27;20026;-65
2021/04/21 06:42:19;;;;;;;4.23;1.63;;;20.60;47.80;;;;;;6356688;27;20146;-64
2021/04/21 06:45:34;;;;;;;3.35;1.63;;;20.60;47.80;;;;;;6372929;27;20030;-64
2021/04/21 06:48:37;;;;;;;5.63;1.70;;;20.60;47.80;;;;;;6359110;27;20048;-64
2021/04/21 06:51:38;;;;;;;2.17;1.50;;;20.60;47.80;;;;;;6355377;27;20554;-64
2021/04/21 06:54:39;;;;;;;1.60;1.17;;;20.60;47.80;;;;;;6370518;27;20027;-64
2021/04/21 06:57:39;;;;;;;1.40;1.27;;;20.60;47.80;;;;;;6369799;27;20030;-64
2021/04/21 07:00:40;;;;;;;1.35;1.23;;;20.60;47.80;;;;;;6353977;27;20023;-64
2021/04/21 07:03:43;;;;;;;4.68;1.20;;;20.60;47.80;;;;;;6363359;27;20019;-63
2021/04/21 07:06:44;;;;;;;2.15;1.45;;;20.60;47.80;;;;;;6346698;28;20015;-65
2021/04/21 07:09:47;;;;;;;3.63;1.95;;;20.60;47.80;;;;;;6363137;27;20481;-64
2021/04/21 07:12:47;;;;;;;1.73;1.35;;;20.60;47.80;;;;;;6351334;27;20583;-64
2021/04/21 07:15:50;;;;;;;1.42;1.30;;;20.60;48.50;;;;;;6356925;27;20024;-65
2021/04/21 07:18:58;;;;;;;2.75;1.45;;;20.60;47.80;;;;;;6358069;27;20084;-65
2021/04/21 07:21:58;;;;;;;1.65;1.38;;;20.60;47.80;;;;;;6348678;27;20028;-64
2021/04/21 07:24:59;;;;;;;1.95;1.50;;;20.60;47.80;;;;;;6352620;27;20499;-66
2021/04/21 07:28:00;;;;;;;2.42;1.50;;;20.60;47.80;;;;;;6371709;27;20031;-64
2021/04/21 07:31:14;;;;;;;1.42;1.33;;;20.60;47.80;;;;;;6358295;27;20516;-64
2021/04/21 07:34:32;;;;;;;1.75;1.48;;;20.60;47.80;;;;;;6357754;27;20080;-64
2021/04/21 07:37:33;;;;;;;3.22;1.67;;;20.60;47.80;;;;;;6338414;27;20085;-64
2021/04/21 07:40:36;;;;;;;2.15;1.30;;;20.60;47.90;;;;;;6366341;27;20090;-64
2021/04/21 07:43:43;;;;;;;1.85;1.52;;;20.60;47.90;;;;;;6372412;27;20054;-64
2021/04/21 07:46:44;;;;;;;2.70;1.52;;;20.60;47.80;;;;;;6372524;27;20034;-65
2021/04/21 07:49:53;;;;;;;1.83;1.38;;;20.60;47.80;;;;;;6360126;27;20399;-65
2021/04/21 07:53:01;;;;;;;1.65;1.40;;;20.60;47.80;;;;;;6372538;27;20102;-65
2021/04/21 07:56:04;;;;;;;1.73;1.30;;;20.60;47.80;;;;;;6372226;27;20545;-64
2021/04/21 07:59:19;;;;;;;2.00;1.33;;;20.60;47.70;;;;;;6372221;27;20031;-64
2021/04/21 08:02:22;;;;;;;2.17;1.50;;;20.60;47.70;;;;;;6372890;27;20381;-64
2021/04/21 08:05:23;;;;;;;2.72;1.88;;;20.60;47.70;;;;;;6372965;27;20116;-65
2021/04/21 08:08:31;;;;;;;2.45;1.42;;;20.60;47.70;;;;;;6372569;27;20027;-64
2021/04/21 08:11:32;;;;;;;1.77;1.50;;;20.60;47.70;;;;;;6371806;27;20644;-64
2021/04/21 08:14:44;;;;;;;1.77;1.30;;;20.60;47.70;;;;;;6371595;27;20023;-65
2021/04/21 08:17:58;;;;;;;2.03;1.50;;;20.60;47.70;;;;;;6371559;27;20012;-65
2021/04/21 08:20:59;;;;;;;1.70;1.50;;;20.60;47.70;;;;;;6370511;27;20377;-64
2021/04/21 08:24:14;;;;;;;1.50;1.30;;;20.60;47.70;;;;;;6360691;27;20046;-65
2021/04/21 08:27:16;;;;;;;;;;;20.60;47.70;;;;;;6347130;28;20501;-65
2021/04/21 08:30:17;;;;;;;2.58;1.42;;;20.60;47.70;;;;;;6354510;27;20363;-64
2021/04/21 08:33:18;;;;;;;1.77;1.27;;;20.60;47.70;;;;;;6372445;27;20034;-64
2021/04/21 08:36:19;;;;;;;1.90;1.48;;;20.60;47.70;;;;;;6371881;27;20027;-64
2021/04/21 08:39:19;;;;;;;2.03;1.58;;;20.60;47.70;;;;;;6372058;27;20360;-64
2021/04/21 08:42:23;;;;;;;2.03;1.33;;;20.60;47.70;;;;;;6371901;27;20015;-65
2021/04/21 08:45:24;;;;;;;2.42;1.55;;;20.60;47.60;;;;;;6371653;27;20038;-65
2021/04/21 08:48:26;;;;;;;3.38;1.63;;;20.60;47.70;;;;;;6354594;27;20052;-65
2021/04/21 08:51:28;;;;;;;2.08;1.48;;;20.60;47.70;;;;;;6360042;27;20168;-65
2021/04/21 08:54:31;;;;;;;1.42;1.20;;;20.60;47.70;;;;;;6371316;27;20064;-64
2021/04/21 08:57:32;;;;;;;2.10;1.67;;;20.60;47.70;;;;;;6348152;27;20432;-64
2021/04/21 09:00:32;;;;;;;1.92;1.33;;;20.60;47.70;;;;;;6350986;27;20020;-65
2021/04/21 09:03:35;;;;;;;3.42;1.67;;;20.60;47.70;;;;;;6371475;27;20422;-64
2021/04/21 09:06:37;;;;;;;1.80;1.52;;;20.60;47.70;;;;;;6370929;27;20035;-65
2021/04/21 09:09:38;;;;;;;1.73;1.33;;;20.60;47.70;;;;;;6370962;27;20027;-64
2021/04/21 09:12:39;;;;;;;2.45;1.40;;;20.60;47.70;;;;;;6370622;27;20110;-65
2021/04/21 09:15:40;;;;;;;1.80;1.40;;;20.60;47.60;;;;;;6362669;27;20027;-65
2021/04/21 09:18:41;;;;;;;3.53;1.63;;;20.60;47.70;;;;;;6370781;27;20035;-64
2021/04/21 09:21:42;;;;;;;1.58;1.30;;;20.60;47.60;;;;;;6370801;27;20529;-65
2021/04/21 09:24:43;;;;;;;1.83;1.33;;;20.60;47.60;;;;;;6364124;27;20012;-64
2021/04/21 09:27:53;;;;;;;2.20;1.50;;;20.60;47.60;;;;;;6370988;27;20381;-65
2021/04/21 09:30:57;;;;;;;1.85;1.50;;;20.60;47.70;;;;;;6370990;27;20112;-65
2021/04/21 09:34:08;;;;;;;1.77;1.45;;;20.60;47.70;;;;;;6370393;27;20053;-65
2021/04/21 09:37:24;;;;;;;2.00;1.45;;;20.60;47.70;;;;;;6370733;27;20019;-64
2021/04/21 09:40:45;;;;;;;2.28;1.50;;;20.60;47.70;;;;;;6370752;27;20019;-65
2021/04/21 09:43:46;;;;;;;2.17;1.38;;;20.60;47.70;;;;;;6369883;27;20072;-64
2021/04/21 09:46:48;;;;;;;1.95;1.38;;;20.60;47.70;;;;;;6369606;27;20031;-65
2021/04/21 09:49:55;;;;;;;2.20;1.60;;;20.60;47.70;;;;;;6345152;28;20128;-64
2021/04/21 09:52:56;;;;;;;3.47;1.27;;;20.60;47.70;;;;;;6357659;28;20142;-64
2021/04/21 09:55:58;;;;;;;2.40;1.60;;;20.60;47.70;;;;;;6370565;27;20058;-65
2021/04/21 09:59:02;;;;;;;1.92;1.40;;;20.60;47.70;;;;;;6370527;27;20533;-64
2021/04/21 10:02:04;;;;;;;4.10;1.55;;;20.60;47.70;;;;;;6375062;27;20028;-65
2021/04/21 10:05:28;;;;;;;1.48;1.33;;;20.60;47.70;;;;;;6375200;27;20110;-64
2021/04/21 10:08:34;;;;;;;1.80;1.40;;;20.60;47.70;;;;;;6375081;27;20134;-64
2021/04/21 10:11:34;;;;;;;1.65;1.42;;;20.60;47.70;;;;;;6375333;27;20050;-65
2021/04/21 10:14:35;;;;;;;3.63;1.48;;;20.60;47.70;;;;;;6374853;27;20376;-65
2021/04/21 10:17:37;;;;;;;1.70;1.40;;;20.60;47.70;;;;;;6374779;27;20110;-65
2021/04/21 10:20:38;;;;;;;2.30;1.75;;;20.60;47.70;;;;;;6374709;27;20019;-64
2021/04/21 10:23:39;;;;;;;2.05;1.55;;;20.60;47.70;;;;;;6334248;27;20064;-64
2021/04/21 10:26:41;;;;;;;1.65;1.30;;;20.60;47.70;;;;;;6303629;28;20056;-65
2021/04/21 10:29:41;;;;;;;1.73;1.42;;;20.60;47.70;;;;;;6320827;28;20055;-64
2021/04/21 10:32:42;;;;;;;2.75;1.40;;;20.60;47.70;;;;;;6321195;28;20504;-65
2021/04/21 10:35:43;;;;;;;1.80;1.50;;;20.60;47.70;;;;;;6327487;28;20028;-64
2021/04/21 10:38:43;;;;;;;1.85;1.65;;;20.60;47.70;;;;;;6318996;28;20046;-64
2021/04/21 10:42:10;;;;;;;5.30;1.55;;;20.60;47.70;;;;;;6329809;28;20096;-64
2021/04/21 10:45:17;;;;;;;2.30;1.52;;;20.60;47.70;;;;;;6323072;28;20036;-64
2021/04/21 10:48:37;;;;;;;1.75;1.42;;;20.60;47.80;;;;;;6309006;28;20044;-64
2021/04/21 10:51:40;;;;;;;2.28;1.70;;;20.60;47.80;;;;;;6318897;28;20039;-64
2021/04/21 10:54:41;;;;;;;1.90;1.60;;;20.60;47.80;;;;;;6319277;28;20032;-64
2021/04/21 10:57:55;;;;;;;2.65;1.42;;;20.60;47.80;;;;;;6320184;28;20547;-64
2021/04/21 11:00:56;;;;;;;1.95;1.55;;;20.60;47.90;;;;;;6318221;28;20016;-64
2021/04/21 11:03:57;;;;;;;4.45;2.22;;;20.60;47.80;;;;;;6319205;28;20412;-64
2021/04/21 11:06:58;;;;;;;1.95;1.48;;;20.60;47.80;;;;;;6318944;28;20118;-64
2021/04/21 11:09:58;;;;;;;1.50;1.40;;;20.60;47.80;;;;;;6320342;28;20104;-64
2021/04/21 11:13:00;;;;;;;2.28;1.70;;;20.60;47.90;;;;;;6319825;28;20047;-64
2021/04/21 11:16:02;;;;;;;1.80;1.58;;;20.60;47.80;;;;;;6313061;28;20557;-64
2021/04/21 11:19:18;;;;;;;2.33;1.60;;;20.60;47.90;;;;;;6319977;28;20021;-64
2021/04/21 11:22:25;;;;;;;2.13;1.50;;;20.60;47.90;;;;;;6320150;28;20024;-64
2021/04/21 11:25:28;;;;;;;4.10;1.40;;;20.60;47.90;;;;;;6320151;28;20091;-65
2021/04/21 11:29:03;;;;;;;2.38;1.50;;;20.60;48.60;;;;;;6309182;28;20119;-64
2021/04/21 11:32:03;;;;;;;2.47;1.52;;;20.60;48.00;;;;;;6317817;28;20031;-63
2021/04/21 11:35:27;;;;;;;5.10;1.80;;;20.70;48.00;;;;;;6319691;28;20028;-64
2021/04/21 11:38:40;;;;;;;4.47;1.60;;;20.70;47.80;;;;;;6302086;28;20043;-64
2021/04/21 11:41:44;;;;;;;4.15;1.65;;;20.80;47.80;;;;;;6317348;28;20028;-64
2021/04/21 11:44:47;;;;;;;4.18;1.70;;;20.70;47.70;;;;;;6318515;28;20024;-64
2021/04/21 11:47:49;;;;;;;8.95;1.60;;;20.70;47.70;;;;;;6309399;28;20145;-64
2021/04/21 11:50:50;;;;;;;3.10;1.52;;;20.80;47.90;;;;;;6309420;28;20399;-64
2021/04/21 11:53:50;;;;;;;2.97;1.50;;;20.70;47.80;;;;;;6317761;28;20058;-65
2021/04/21 11:56:51;;;;;;;6.65;1.60;;;20.70;47.90;;;;;;6330108;28;20023;-64
2021/04/21 11:59:52;;;;;;;6.88;1.50;;;20.70;47.90;;;;;;6320183;28;20036;-65
2021/04/21 12:02:53;;;;;;;2.40;1.50;;;20.70;48.00;;;;;;6323753;28;20024;-64
2021/04/21 12:05:59;;;;;;;1.88;1.50;;;20.70;48.00;;;;;;6317529;28;20402;-64
2021/04/21 12:09:00;;;;;;;3.78;1.80;;;20.70;48.00;;;;;;6308240;28;20020;-64
2021/04/21 12:12:01;;;;;;;2.55;1.50;;;20.60;47.90;;;;;;6318697;28;20097;-64
2021/04/21 12:15:07;;;;;;;3.30;1.65;;;20.60;48.00;;;;;;6318294;28;20028;-64
2021/04/21 12:18:08;;;;;;;3.00;1.60;;;20.70;48.00;;;;;;6313167;28;20035;-65
2021/04/21 12:21:14;;;;;;;2.50;1.50;;;20.70;48.00;;;;;;6319184;28;20103;-64
2021/04/21 12:24:15;;;;;;;9.70;1.80;;;20.60;48.00;;;;;;6303609;28;20086;-65
2021/04/21 12:27:29;;;;;;;3.55;1.50;;;20.60;48.00;;;;;;6315162;28;20492;-64
2021/04/21 12:30:32;;;;;;;2.95;1.73;;;20.70;48.00;;;;;;6316975;28;20123;-64
2021/04/21 12:33:33;;;;;;;2.13;1.35;;;20.70;48.00;;;;;;6318461;28;20463;-64
2021/04/21 12:36:37;;;;;;;2.40;1.45;;;20.60;48.00;;;;;;6317625;28;20025;-64
2021/04/21 12:39:44;;;;;;;4.60;1.35;;;20.60;48.70;;;;;;6317512;28;20020;-64
2021/04/21 12:42:44;;;;;;;3.30;1.50;;;20.60;48.00;;;;;;6314979;28;20032;-64
2021/04/21 12:45:45;;;;;;;4.90;1.98;;;20.60;48.00;;;;;;6299539;28;20020;-64
2021/04/21 12:48:50;;;;;;;3.13;1.40;;;20.70;48.10;;;;;;6318164;28;20445;-64
2021/04/21 12:51:51;;;;;;;2.97;1.67;;;20.60;48.00;;;;;;6317931;28;20028;-64
2021/04/21 12:54:52;;;;;;;1.92;1.35;;;20.60;48.00;;;;;;6316418;28;20050;-65
2021/04/21 12:57:52;;;;;;;2.15;1.30;;;20.60;48.00;;;;;;6317644;28;20028;-64
2021/04/21 13:01:09;;;;;;;2.33;1.40;;;20.60;48.00;;;;;;6318516;28;20028;-64
2021/04/21 13:04:12;;;;;;;1.58;1.30;;;20.60;48.00;;;;;;6331739;28;20020;-64
2021/04/21 13:07:20;;;;;;;1.80;1.50;;;20.60;48.00;;;;;;6315555;28;20028;-64
2021/04/21 13:10:21;;;;;;;2.85;1.73;;;20.60;48.10;;;;;;6316659;28;20490;-65
2021/04/21 13:13:31;;;;;;;2.10;1.48;;;20.60;48.10;;;;;;6316825;28;20085;-64
2021/04/21 13:16:35;;;;;;;2.35;1.42;;;20.60;48.10;;;;;;6316105;28;20030;-64
2021/04/21 13:19:38;;;;;;;2.60;1.30;;;20.60;48.10;;;;;;6296725;28;20119;-64
2021/04/21 13:22:38;;;;;;;1.98;1.60;;;20.60;48.10;;;;;;6306345;28;20103;-65
2021/04/21 13:25:55;;;;;;;2.20;1.38;;;20.60;48.00;;;;;;6313713;28;20028;-64
2021/04/21 13:28:59;;;;;;;2.28;1.48;;;20.60;48.10;;;;;;6306576;28;20107;-64
2021/04/21 13:32:13;;;;;;;2.17;1.50;;;20.60;48.10;;;;;;6308409;28;20172;-64
2021/04/21 13:35:15;;;;;;;2.75;1.50;;;20.60;48.10;;;;;;6318835;28;20020;-64
2021/04/21 13:38:15;;;;;;;2.83;1.50;;;20.60;48.10;;;;;;6320927;28;20030;-64
2021/04/21 13:41:18;;;;;;;2.00;1.50;;;20.60;48.10;;;;;;6321141;28;20020;-64
2021/04/21 13:44:19;;;;;;;1.88;1.40;;;20.60;48.10;;;;;;6319856;28;20028;-65
2021/04/21 13:47:19;;;;;;;1.65;1.35;;;20.60;48.10;;;;;;6321635;28;20502;-64
2021/04/21 13:50:20;;;;;;;1.45;1.15;;;20.60;48.10;;;;;;6321461;28;20040;-64
2021/04/21 13:53:20;;;;;;;3.38;1.60;;;20.60;48.20;;;;;;6322261;28;20047;-64
2021/04/21 13:56:21;;;;;;;1.67;1.20;;;20.60;48.10;;;;;;6319628;28;20377;-64
2021/04/21 13:59:21;;;;;;;1.95;1.17;;;20.60;48.10;;;;;;6319162;28;20378;-64
2021/04/21 14:02:22;;;;;;;2.00;1.30;;;20.60;48.20;;;;;;6302497;28;20020;-64
2021/04/21 14:05:22;;;;;;;1.67;1.40;;;20.60;48.10;;;;;;6320421;28;20546;-64
2021/04/21 14:08:24;;;;;;;1.80;1.38;;;20.60;48.10;;;;;;6320057;28;20024;-64
2021/04/21 14:11:24;;;;;;;2.33;1.52;;;20.60;48.10;;;;;;6303857;28;20029;-64
2021/04/21 14:14:25;;;;;;;1.90;1.35;;;20.60;48.80;;;;;;6318622;28;20031;-64
2021/04/21 14:17:26;;;;;;;1.60;1.15;;;20.60;48.00;;;;;;6317885;28;20099;-64
2021/04/21 14:20:27;;;;;;;4.63;1.65;;;20.60;48.00;;;;;;6321574;28;20027;-64
2021/04/21 14:23:27;;;;;;;3.13;1.60;;;20.60;48.80;;;;;;6320747;28;20016;-64
2021/04/21 14:26:28;;;;;;;2.03;1.38;;;20.60;48.10;;;;;;6304938;28;20024;-64
2021/04/21 14:29:29;;;;;;;2.90;1.60;;;20.60;48.10;;;;;;6315759;28;20110;-64
2021/04/21 14:32:29;;;;;;;2.25;1.50;;;20.60;48.10;;;;;;6320730;28;20067;-64
2021/04/21 14:35:30;;;;;;;1.73;1.20;;;20.60;48.10;;;;;;6319821;28;20035;-64
2021/04/21 14:38:30;;;;;;;3.33;1.65;;;20.60;48.10;;;;;;6320497;28;20028;-65
2021/04/21 14:41:33;;;;;;;1.85;1.30;;;20.60;48.10;;;;;;6321560;28;20034;-64
2021/04/21 14:44:34;;;;;;;2.53;1.40;;;20.60;48.10;;;;;;6320484;28;20414;-64
2021/04/21 14:47:35;;;;;;;1.90;1.40;;;20.60;48.10;;;;;;6314342;28;20027;-64
2021/04/21 14:50:36;;;;;;;2.03;1.67;;;20.60;48.10;;;;;;6320634;28;20866;-64
2021/04/21 14:53:36;;;;;;;1.63;1.40;;;20.60;48.20;;;;;;6321003;28;20107;-64
2021/04/21 14:56:37;;;;;;;1.75;1.27;;;20.60;48.10;;;;;;6320730;28;20066;-64
2021/04/21 14:59:37;;;;;;;1.52;1.33;;;20.60;48.10;;;;;;6319867;28;20488;-64
2021/04/21 15:02:38;;;;;;;1.70;1.40;;;20.60;48.10;;;;;;6320441;28;20040;-64
2021/04/21 15:05:38;;;;;;;2.90;1.48;;;20.60;48.20;;;;;;6320145;28;20035;-64
2021/04/21 15:08:39;;;;;;;1.50;1.33;;;20.60;48.10;;;;;;6320469;28;20040;-65
2021/04/21 15:11:42;;;;;;;1.73;1.50;;;20.60;48.10;;;;;;6319855;28;20074;-64
2021/04/21 15:14:44;;;;;;;2.25;1.58;;;20.60;48.10;;;;;;6320231;28;20475;-64
2021/04/21 15:17:49;;;;;;;2.25;1.60;;;20.60;48.10;;;;;;6319325;28;20830;-64
2021/04/21 15:20:50;;;;;;;3.47;2.08;;;20.60;48.10;;;;;;6320530;28;20394;-64
2021/04/21 15:23:51;;;;;;;2.33;1.55;;;20.60;48.10;;;;;;6319163;28;20436;-64
2021/04/21 15:26:52;;;;;;;1.83;1.40;;;20.60;48.10;;;;;;6319405;28;20028;-64
2021/04/21 15:29:53;;;;;;;2.97;1.63;;;20.60;48.10;;;;;;6320334;28;20027;-64
2021/04/21 15:32:54;;;;;;;1.25;1.15;;;20.60;48.10;;;;;;6319908;28;20114;-65
2021/04/21 15:35:55;;;;;;;1.55;1.45;;;20.60;48.20;;;;;;6316929;28;20420;-64
2021/04/21 15:38:57;;;;;;;1.85;1.40;;;20.60;48.20;;;;;;6301963;28;20020;-64
2021/04/21 15:41:59;;;;;;;2.20;1.60;;;20.60;48.20;;;;;;6320107;28;20016;-65
2021/04/21 15:44:59;;;;;;;2.05;1.33;;;20.60;48.20;;;;;;6319465;28;20024;-64
2021/04/21 15:48:01;;;;;;;1.98;1.50;;;20.60;48.20;;;;;;6318525;28;20075;-65
2021/04/21 15:51:02;;;;;;;1.40;1.30;;;20.60;48.20;;;;;;6319347;28;20097;-64
2021/04/21 15:54:03;;;;;;;2.13;1.33;;;20.60;48.20;;;;;;6300301;28;20240;-64
2021/04/21 15:57:04;;;;;;;2.97;1.50;;;20.60;48.20;;;;;;6316029;28;20475;-64
2021/04/21 16:00:05;;;;;;;2.17;1.40;;;20.60;48.20;;;;;;6315777;28;20657;-64
2021/04/21 16:03:06;;;;;;;2.60;1.70;;;20.60;48.30;;;;;;6317551;28;20466;-64
2021/04/21 16:06:09;;;;;;;2.15;1.50;;;20.60;48.20;;;;;;6317345;28;20024;-65
2021/04/21 16:09:10;;;;;;;2.15;1.30;;;20.60;48.20;;;;;;6317274;28;20462;-65